sensor_id;sensor_type;location;lat;lon;timestamp;pressure;altitude;pressure_sealevel;temperature
13570;BMP180;6856;51.460;7.158;2024-01-07T00:00:28;100323.00;;;7.30
13570;BMP180;6856;51.460;7.158;2024-01-07T00:03:03;100326.00;;;7.20
13570;BMP180;6856;51.460;7.158;2024-01-07T00:05:38;100313.00;;;7.20
13570;BMP180;6856;51.460;7.158;2024-01-07T00:08:12;100338.00;;;7.20
13570;BMP180;6856;51.460;7.158;2024-01-07T00:10:46;100335.00;;;7.10
13570;BMP180;6856;51.460;7.158;2024-01-07T00:13:19;100339.00;;;7.10
13570;BMP180;6856;51.460;7.158;2024-01-07T00:15:53;100334.00;;;7.10
13570;BMP180;6856;51.460;7.158;2024-01-07T00:18:28;100337.00;;;7.10
13570;BMP180;6856;51.460;7.158;2024-01-07T00:21:04;100339.00;;;7.10
13570;BMP180;6856;51.460;7.158;2024-01-07T00:23:37;100341.00;;;7.10
13570;BMP180;6856;51.460;7.158;2024-01-07T00:26:11;100347.00;;;7.00
13570;BMP180;6856;51.460;7.158;2024-01-07T00:28:45;100351.00;;;7.00
13570;BMP180;6856;51.460;7.158;2024-01-07T00:31:19;100344.00;;;7.00
13570;BMP180;6856;51.460;7.158;2024-01-07T00:33:53;100347.00;;;7.00
13570;BMP180;6856;51.460;7.158;2024-01-07T00:36:29;100351.00;;;7.00
13570;BMP180;6856;51.460;7.158;2024-01-07T00:39:03;100352.00;;;7.00
13570;BMP180;6856;51.460;7.158;2024-01-07T00:41:37;100346.00;;;7.00
13570;BMP180;6856;51.460;7.158;2024-01-07T00:44:11;100354.00;;;7.00
13570;BMP180;6856;51.460;7.158;2024-01-07T00:46:45;100358.00;;;7.00
13570;BMP180;6856;51.460;7.158;2024-01-07T00:49:20;100360.00;;;7.00
13570;BMP180;6856;51.460;7.158;2024-01-07T00:51:56;100357.00;;;7.00
13570;BMP180;6856;51.460;7.158;2024-01-07T00:54:29;100368.00;;;7.00
13570;BMP180;6856;51.460;7.158;2024-01-07T00:57:04;100364.00;;;7.00
13570;BMP180;6856;51.460;7.158;2024-01-07T00:59:38;100364.00;;;7.00
13570;BMP180;6856;51.460;7.158;2024-01-07T01:02:12;100372.00;;;7.00
13570;BMP180;6856;51.460;7.158;2024-01-07T01:04:46;100376.00;;;7.00
13570;BMP180;6856;51.460;7.158;2024-01-07T01:07:22;100379.00;;;7.00
13570;BMP180;6856;51.460;7.158;2024-01-07T01:09:55;100377.00;;;7.00
13570;BMP180;6856;51.460;7.158;2024-01-07T01:12:29;100382.00;;;7.00
13570;BMP180;6856;51.460;7.158;2024-01-07T01:15:04;100373.00;;;6.90
13570;BMP180;6856;51.460;7.158;2024-01-07T01:17:38;100359.00;;;6.90
13570;BMP180;6856;51.460;7.158;2024-01-07T01:20:12;100375.00;;;6.90
13570;BMP180;6856;51.460;7.158;2024-01-07T01:22:47;100380.00;;;6.90
13570;BMP180;6856;51.460;7.158;2024-01-07T01:25:21;100391.00;;;6.90
13570;BMP180;6856;51.460;7.158;2024-01-07T01:27:55;100384.00;;;6.90
13570;BMP180;6856;51.460;7.158;2024-01-07T01:30:29;100386.00;;;6.80
13570;BMP180;6856;51.460;7.158;2024-01-07T01:33:04;100376.00;;;6.80
13570;BMP180;6856;51.460;7.158;2024-01-07T01:35:39;100397.00;;;6.80
13570;BMP180;6856;51.460;7.158;2024-01-07T01:38:14;100393.00;;;6.80
13570;BMP180;6856;51.460;7.158;2024-01-07T01:40:52;100400.00;;;6.80
13570;BMP180;6856;51.460;7.158;2024-01-07T01:43:26;100410.00;;;6.80
13570;BMP180;6856;51.460;7.158;2024-01-07T01:46:00;100411.00;;;6.80
13570;BMP180;6856;51.460;7.158;2024-01-07T01:48:36;100412.00;;;6.80
13570;BMP180;6856;51.460;7.158;2024-01-07T01:51:10;100424.00;;;6.80
13570;BMP180;6856;51.460;7.158;2024-01-07T01:53:47;100418.00;;;6.70
13570;BMP180;6856;51.460;7.158;2024-01-07T01:56:22;100415.00;;;6.70
13570;BMP180;6856;51.460;7.158;2024-01-07T01:58:58;100415.00;;;6.70
13570;BMP180;6856;51.460;7.158;2024-01-07T02:01:31;100404.00;;;6.70
13570;BMP180;6856;51.460;7.158;2024-01-07T02:04:05;100420.00;;;6.70
13570;BMP180;6856;51.460;7.158;2024-01-07T02:06:40;100420.00;;;6.70
13570;BMP180;6856;51.460;7.158;2024-01-07T02:09:15;100401.00;;;6.70
13570;BMP180;6856;51.460;7.158;2024-01-07T02:12:00;100415.00;;;6.70
13570;BMP180;6856;51.460;7.158;2024-01-07T02:14:35;100426.00;;;6.80
13570;BMP180;6856;51.460;7.158;2024-01-07T02:17:08;100425.00;;;6.70
13570;BMP180;6856;51.460;7.158;2024-01-07T02:19:43;100419.00;;;6.80
13570;BMP180;6856;51.460;7.158;2024-01-07T02:22:17;100434.00;;;6.70
13570;BMP180;6856;51.460;7.158;2024-01-07T02:24:53;100433.00;;;6.70
13570;BMP180;6856;51.460;7.158;2024-01-07T02:27:28;100436.00;;;6.70
13570;BMP180;6856;51.460;7.158;2024-01-07T02:30:02;100440.00;;;6.70
13570;BMP180;6856;51.460;7.158;2024-01-07T02:32:36;100438.00;;;6.60
13570;BMP180;6856;51.460;7.158;2024-01-07T02:35:10;100440.00;;;6.60
13570;BMP180;6856;51.460;7.158;2024-01-07T02:37:44;100438.00;;;6.60
13570;BMP180;6856;51.460;7.158;2024-01-07T02:40:19;100445.00;;;6.60
13570;BMP180;6856;51.460;7.158;2024-01-07T02:42:53;100452.00;;;6.50
13570;BMP180;6856;51.460;7.158;2024-01-07T02:45:28;100446.00;;;6.40
13570;BMP180;6856;51.460;7.158;2024-01-07T02:48:03;100459.00;;;6.40
13570;BMP180;6856;51.460;7.158;2024-01-07T02:50:37;100456.00;;;6.40
13570;BMP180;6856;51.460;7.158;2024-01-07T02:53:11;100463.00;;;6.40
13570;BMP180;6856;51.460;7.158;2024-01-07T02:55:46;100467.00;;;6.30
13570;BMP180;6856;51.460;7.158;2024-01-07T02:58:20;100462.00;;;6.30
13570;BMP180;6856;51.460;7.158;2024-01-07T03:00:54;100459.00;;;6.30
13570;BMP180;6856;51.460;7.158;2024-01-07T03:03:27;100467.00;;;6.30
13570;BMP180;6856;51.460;7.158;2024-01-07T03:06:01;100465.00;;;6.30
13570;BMP180;6856;51.460;7.158;2024-01-07T03:08:35;100469.00;;;6.20
13570;BMP180;6856;51.460;7.158;2024-01-07T03:11:10;100472.00;;;6.20
13570;BMP180;6856;51.460;7.158;2024-01-07T03:13:44;100479.00;;;6.20
13570;BMP180;6856;51.460;7.158;2024-01-07T03:16:21;100483.00;;;6.20
13570;BMP180;6856;51.460;7.158;2024-01-07T03:18:56;100481.00;;;6.20
13570;BMP180;6856;51.460;7.158;2024-01-07T03:21:29;100487.00;;;6.20
13570;BMP180;6856;51.460;7.158;2024-01-07T03:24:04;100476.00;;;6.20
13570;BMP180;6856;51.460;7.158;2024-01-07T03:26:40;100491.00;;;6.20
13570;BMP180;6856;51.460;7.158;2024-01-07T03:29:14;100479.00;;;6.10
13570;BMP180;6856;51.460;7.158;2024-01-07T03:31:48;100473.00;;;6.10
13570;BMP180;6856;51.460;7.158;2024-01-07T03:34:23;100487.00;;;6.10
13570;BMP180;6856;51.460;7.158;2024-01-07T03:36:57;100498.00;;;6.20
13570;BMP180;6856;51.460;7.158;2024-01-07T03:39:32;100488.00;;;6.10
13570;BMP180;6856;51.460;7.158;2024-01-07T03:42:08;100485.00;;;6.20
13570;BMP180;6856;51.460;7.158;2024-01-07T03:44:44;100485.00;;;6.20
13570;BMP180;6856;51.460;7.158;2024-01-07T03:47:17;100496.00;;;6.10
13570;BMP180;6856;51.460;7.158;2024-01-07T03:49:51;100502.00;;;6.10
13570;BMP180;6856;51.460;7.158;2024-01-07T03:52:25;100499.00;;;6.10
13570;BMP180;6856;51.460;7.158;2024-01-07T03:55:01;100500.00;;;6.10
13570;BMP180;6856;51.460;7.158;2024-01-07T03:57:37;100503.00;;;6.10
13570;BMP180;6856;51.460;7.158;2024-01-07T04:00:11;100501.00;;;6.10
13570;BMP180;6856;51.460;7.158;2024-01-07T04:02:45;100506.00;;;6.10
13570;BMP180;6856;51.460;7.158;2024-01-07T04:05:19;100494.00;;;6.10
13570;BMP180;6856;51.460;7.158;2024-01-07T04:07:53;100489.00;;;6.10
13570;BMP180;6856;51.460;7.158;2024-01-07T04:10:27;100504.00;;;6.10
13570;BMP180;6856;51.460;7.158;2024-01-07T04:13:02;100501.00;;;6.10
13570;BMP180;6856;51.460;7.158;2024-01-07T04:15:36;100513.00;;;6.00
13570;BMP180;6856;51.460;7.158;2024-01-07T04:18:11;100513.00;;;6.00
13570;BMP180;6856;51.460;7.158;2024-01-07T04:20:44;100517.00;;;6.00
13570;BMP180;6856;51.460;7.158;2024-01-07T04:23:18;100520.00;;;6.00
13570;BMP180;6856;51.460;7.158;2024-01-07T04:25:55;100532.00;;;5.90
13570;BMP180;6856;51.460;7.158;2024-01-07T04:28:30;100517.00;;;5.90
13570;BMP180;6856;51.460;7.158;2024-01-07T04:31:04;100532.00;;;5.90
13570;BMP180;6856;51.460;7.158;2024-01-07T04:33:38;100529.00;;;5.80
13570;BMP180;6856;51.460;7.158;2024-01-07T04:36:12;100541.00;;;5.80
13570;BMP180;6856;51.460;7.158;2024-01-07T04:38:46;100525.00;;;5.80
13570;BMP180;6856;51.460;7.158;2024-01-07T04:41:19;100542.00;;;5.80
13570;BMP180;6856;51.460;7.158;2024-01-07T04:43:54;100536.00;;;5.80
13570;BMP180;6856;51.460;7.158;2024-01-07T04:46:28;100546.00;;;5.80
13570;BMP180;6856;51.460;7.158;2024-01-07T04:49:02;100545.00;;;5.80
13570;BMP180;6856;51.460;7.158;2024-01-07T04:51:37;100537.00;;;5.80
13570;BMP180;6856;51.460;7.158;2024-01-07T04:54:10;100552.00;;;5.70
13570;BMP180;6856;51.460;7.158;2024-01-07T04:56:44;100552.00;;;5.70
13570;BMP180;6856;51.460;7.158;2024-01-07T04:59:20;100565.00;;;5.70
13570;BMP180;6856;51.460;7.158;2024-01-07T05:01:54;100557.00;;;5.70
13570;BMP180;6856;51.460;7.158;2024-01-07T05:04:28;100563.00;;;5.70
13570;BMP180;6856;51.460;7.158;2024-01-07T05:07:03;100566.00;;;5.70
13570;BMP180;6856;51.460;7.158;2024-01-07T05:09:39;100576.00;;;5.70
13570;BMP180;6856;51.460;7.158;2024-01-07T05:12:13;100562.00;;;5.70
13570;BMP180;6856;51.460;7.158;2024-01-07T05:14:49;100576.00;;;5.70
13570;BMP180;6856;51.460;7.158;2024-01-07T05:17:23;100573.00;;;5.70
13570;BMP180;6856;51.460;7.158;2024-01-07T05:19:56;100583.00;;;5.70
13570;BMP180;6856;51.460;7.158;2024-01-07T05:22:30;100574.00;;;5.70
13570;BMP180;6856;51.460;7.158;2024-01-07T05:25:04;100581.00;;;5.70
13570;BMP180;6856;51.460;7.158;2024-01-07T05:27:38;100581.00;;;5.60
13570;BMP180;6856;51.460;7.158;2024-01-07T05:30:14;100591.00;;;5.60
13570;BMP180;6856;51.460;7.158;2024-01-07T05:32:48;100591.00;;;5.60
13570;BMP180;6856;51.460;7.158;2024-01-07T05:35:23;100591.00;;;5.60
13570;BMP180;6856;51.460;7.158;2024-01-07T05:37:57;100587.00;;;5.60
13570;BMP180;6856;51.460;7.158;2024-01-07T05:40:31;100596.00;;;5.60
13570;BMP180;6856;51.460;7.158;2024-01-07T05:43:04;100609.00;;;5.60
13570;BMP180;6856;51.460;7.158;2024-01-07T05:45:40;100594.00;;;5.50
13570;BMP180;6856;51.460;7.158;2024-01-07T05:48:14;100609.00;;;5.50
13570;BMP180;6856;51.460;7.158;2024-01-07T05:50:48;100614.00;;;5.50
13570;BMP180;6856;51.460;7.158;2024-01-07T05:53:23;100610.00;;;5.50
13570;BMP180;6856;51.460;7.158;2024-01-07T05:55:57;100615.00;;;5.50
13570;BMP180;6856;51.460;7.158;2024-01-07T05:58:31;100626.00;;;5.50
13570;BMP180;6856;51.460;7.158;2024-01-07T06:01:07;100626.00;;;5.50
13570;BMP180;6856;51.460;7.158;2024-01-07T06:03:41;100622.00;;;5.50
13570;BMP180;6856;51.460;7.158;2024-01-07T06:06:15;100631.00;;;5.50
13570;BMP180;6856;51.460;7.158;2024-01-07T06:08:49;100634.00;;;5.50
13570;BMP180;6856;51.460;7.158;2024-01-07T06:11:23;100635.00;;;5.50
13570;BMP180;6856;51.460;7.158;2024-01-07T06:13:57;100644.00;;;5.40
13570;BMP180;6856;51.460;7.158;2024-01-07T06:16:32;100647.00;;;5.40
13570;BMP180;6856;51.460;7.158;2024-01-07T06:19:06;100646.00;;;5.40
13570;BMP180;6856;51.460;7.158;2024-01-07T06:21:40;100650.00;;;5.40
13570;BMP180;6856;51.460;7.158;2024-01-07T06:24:15;100655.00;;;5.40
13570;BMP180;6856;51.460;7.158;2024-01-07T06:26:49;100661.00;;;5.40
13570;BMP180;6856;51.460;7.158;2024-01-07T06:29:23;100663.00;;;5.30
13570;BMP180;6856;51.460;7.158;2024-01-07T06:31:58;100666.00;;;5.40
13570;BMP180;6856;51.460;7.158;2024-01-07T06:34:33;100670.00;;;5.40
13570;BMP180;6856;51.460;7.158;2024-01-07T06:37:07;100673.00;;;5.30
13570;BMP180;6856;51.460;7.158;2024-01-07T06:39:44;100678.00;;;5.30
13570;BMP180;6856;51.460;7.158;2024-01-07T06:42:19;100681.00;;;5.30
13570;BMP180;6856;51.460;7.158;2024-01-07T06:44:53;100675.00;;;5.30
13570;BMP180;6856;51.460;7.158;2024-01-07T06:47:28;100680.00;;;5.30
13570;BMP180;6856;51.460;7.158;2024-01-07T06:50:04;100686.00;;;5.30
13570;BMP180;6856;51.460;7.158;2024-01-07T06:52:38;100685.00;;;5.30
13570;BMP180;6856;51.460;7.158;2024-01-07T06:55:13;100694.00;;;5.30
13570;BMP180;6856;51.460;7.158;2024-01-07T06:57:47;100699.00;;;5.20
13570;BMP180;6856;51.460;7.158;2024-01-07T07:00:21;100705.00;;;5.20
13570;BMP180;6856;51.460;7.158;2024-01-07T07:02:57;100707.00;;;5.20
13570;BMP180;6856;51.460;7.158;2024-01-07T07:05:31;100717.00;;;5.20
13570;BMP180;6856;51.460;7.158;2024-01-07T07:08:06;100708.00;;;5.20
13570;BMP180;6856;51.460;7.158;2024-01-07T07:10:40;100729.00;;;5.20
13570;BMP180;6856;51.460;7.158;2024-01-07T07:13:14;100726.00;;;5.20
13570;BMP180;6856;51.460;7.158;2024-01-07T07:15:49;100730.00;;;5.10
13570;BMP180;6856;51.460;7.158;2024-01-07T07:18:24;100694.00;;;5.20
13570;BMP180;6856;51.460;7.158;2024-01-07T07:20:58;100737.00;;;5.20
13570;BMP180;6856;51.460;7.158;2024-01-07T07:23:33;100737.00;;;5.20
13570;BMP180;6856;51.460;7.158;2024-01-07T07:26:06;100746.00;;;5.10
13570;BMP180;6856;51.460;7.158;2024-01-07T07:28:41;100743.00;;;5.10
13570;BMP180;6856;51.460;7.158;2024-01-07T07:31:14;100747.00;;;5.10
13570;BMP180;6856;51.460;7.158;2024-01-07T07:33:50;100750.00;;;5.10
13570;BMP180;6856;51.460;7.158;2024-01-07T07:36:25;100751.00;;;5.20
13570;BMP180;6856;51.460;7.158;2024-01-07T07:39:00;100744.00;;;5.10
13570;BMP180;6856;51.460;7.158;2024-01-07T07:41:36;100764.00;;;5.10
13570;BMP180;6856;51.460;7.158;2024-01-07T07:44:09;100770.00;;;5.10
13570;BMP180;6856;51.460;7.158;2024-01-07T07:46:43;100776.00;;;5.00
13570;BMP180;6856;51.460;7.158;2024-01-07T07:49:18;100783.00;;;5.00
13570;BMP180;6856;51.460;7.158;2024-01-07T07:51:53;100789.00;;;5.00
13570;BMP180;6856;51.460;7.158;2024-01-07T07:54:28;100797.00;;;5.00
13570;BMP180;6856;51.460;7.158;2024-01-07T07:57:04;100802.00;;;4.90
13570;BMP180;6856;51.460;7.158;2024-01-07T07:59:45;100802.00;;;4.90
13570;BMP180;6856;51.460;7.158;2024-01-07T08:02:20;100804.00;;;4.90
13570;BMP180;6856;51.460;7.158;2024-01-07T08:04:57;100808.00;;;4.90
13570;BMP180;6856;51.460;7.158;2024-01-07T08:07:31;100813.00;;;4.80
13570;BMP180;6856;51.460;7.158;2024-01-07T08:10:07;100818.00;;;4.90
13570;BMP180;6856;51.460;7.158;2024-01-07T08:12:41;100820.00;;;4.90
13570;BMP180;6856;51.460;7.158;2024-01-07T08:15:17;100826.00;;;4.80
13570;BMP180;6856;51.460;7.158;2024-01-07T08:17:51;100834.00;;;4.80
13570;BMP180;6856;51.460;7.158;2024-01-07T08:20:27;100838.00;;;4.80
13570;BMP180;6856;51.460;7.158;2024-01-07T08:23:03;100844.00;;;4.80
13570;BMP180;6856;51.460;7.158;2024-01-07T08:25:37;100838.00;;;4.80
13570;BMP180;6856;51.460;7.158;2024-01-07T08:28:11;100844.00;;;4.80
13570;BMP180;6856;51.460;7.158;2024-01-07T08:30:45;100850.00;;;4.80
13570;BMP180;6856;51.460;7.158;2024-01-07T08:33:24;100854.00;;;4.80
13570;BMP180;6856;51.460;7.158;2024-01-07T08:36:04;100863.00;;;4.80
13570;BMP180;6856;51.460;7.158;2024-01-07T08:38:38;100861.00;;;4.80
13570;BMP180;6856;51.460;7.158;2024-01-07T08:41:17;100865.00;;;4.80
13570;BMP180;6856;51.460;7.158;2024-01-07T08:43:51;100864.00;;;4.80
13570;BMP180;6856;51.460;7.158;2024-01-07T08:46:26;100868.00;;;4.70
13570;BMP180;6856;51.460;7.158;2024-01-07T08:49:01;100876.00;;;4.70
13570;BMP180;6856;51.460;7.158;2024-01-07T08:51:37;100862.00;;;4.70
13570;BMP180;6856;51.460;7.158;2024-01-07T08:54:11;100878.00;;;4.60
13570;BMP180;6856;51.460;7.158;2024-01-07T08:56:45;100869.00;;;4.60
13570;BMP180;6856;51.460;7.158;2024-01-07T08:59:20;100886.00;;;4.60
13570;BMP180;6856;51.460;7.158;2024-01-07T09:01:54;100892.00;;;4.60
13570;BMP180;6856;51.460;7.158;2024-01-07T09:04:29;100896.00;;;4.60
13570;BMP180;6856;51.460;7.158;2024-01-07T09:07:07;100906.00;;;4.60
13570;BMP180;6856;51.460;7.158;2024-01-07T09:09:41;100903.00;;;4.60
13570;BMP180;6856;51.460;7.158;2024-01-07T09:12:16;100899.00;;;4.60
13570;BMP180;6856;51.460;7.158;2024-01-07T09:14:53;100905.00;;;4.60
13570;BMP180;6856;51.460;7.158;2024-01-07T09:17:27;100901.00;;;4.70
13570;BMP180;6856;51.460;7.158;2024-01-07T09:20:03;100890.00;;;4.70
13570;BMP180;6856;51.460;7.158;2024-01-07T09:22:41;100906.00;;;4.60
13570;BMP180;6856;51.460;7.158;2024-01-07T09:25:18;100909.00;;;4.60
13570;BMP180;6856;51.460;7.158;2024-01-07T09:27:54;100921.00;;;4.60
13570;BMP180;6856;51.460;7.158;2024-01-07T09:30:27;100934.00;;;4.60
13570;BMP180;6856;51.460;7.158;2024-01-07T09:33:03;100922.00;;;4.60
13570;BMP180;6856;51.460;7.158;2024-01-07T09:35:38;100930.00;;;4.60
13570;BMP180;6856;51.460;7.158;2024-01-07T09:38:13;100933.00;;;4.60
13570;BMP180;6856;51.460;7.158;2024-01-07T09:40:49;100927.00;;;4.60
13570;BMP180;6856;51.460;7.158;2024-01-07T09:43:43;100932.00;;;4.60
13570;BMP180;6856;51.460;7.158;2024-01-07T09:46:37;100942.00;;;4.60
13570;BMP180;6856;51.460;7.158;2024-01-07T09:49:12;100939.00;;;4.60
13570;BMP180;6856;51.460;7.158;2024-01-07T09:51:51;100951.00;;;4.60
13570;BMP180;6856;51.460;7.158;2024-01-07T09:54:31;100950.00;;;4.60
13570;BMP180;6856;51.460;7.158;2024-01-07T09:57:13;100939.00;;;4.60
13570;BMP180;6856;51.460;7.158;2024-01-07T09:59:50;100951.00;;;4.60
13570;BMP180;6856;51.460;7.158;2024-01-07T10:02:24;100956.00;;;4.50
13570;BMP180;6856;51.460;7.158;2024-01-07T10:05:03;100963.00;;;4.50
13570;BMP180;6856;51.460;7.158;2024-01-07T10:07:39;100942.00;;;4.50
13570;BMP180;6856;51.460;7.158;2024-01-07T10:10:18;100882.00;;;4.50
13570;BMP180;6856;51.460;7.158;2024-01-07T10:12:52;100955.00;;;4.50
13570;BMP180;6856;51.460;7.158;2024-01-07T10:15:29;100961.00;;;4.60
13570;BMP180;6856;51.460;7.158;2024-01-07T10:18:07;100969.00;;;4.60
13570;BMP180;6856;51.460;7.158;2024-01-07T10:20:43;100957.00;;;4.60
13570;BMP180;6856;51.460;7.158;2024-01-07T10:23:19;100962.00;;;4.60
13570;BMP180;6856;51.460;7.158;2024-01-07T10:25:55;100961.00;;;4.60
13570;BMP180;6856;51.460;7.158;2024-01-07T10:28:34;100972.00;;;4.60
13570;BMP180;6856;51.460;7.158;2024-01-07T10:31:08;100971.00;;;4.60
13570;BMP180;6856;51.460;7.158;2024-01-07T10:33:42;100965.00;;;4.50
13570;BMP180;6856;51.460;7.158;2024-01-07T10:36:17;100966.00;;;4.50
13570;BMP180;6856;51.460;7.158;2024-01-07T10:38:52;100967.00;;;4.50
13570;BMP180;6856;51.460;7.158;2024-01-07T10:41:28;100972.00;;;4.50
13570;BMP180;6856;51.460;7.158;2024-01-07T10:44:04;100969.00;;;4.50
13570;BMP180;6856;51.460;7.158;2024-01-07T10:46:38;100958.00;;;4.50
13570;BMP180;6856;51.460;7.158;2024-01-07T10:49:20;100972.00;;;4.50
13570;BMP180;6856;51.460;7.158;2024-01-07T10:52:03;100980.00;;;4.50
13570;BMP180;6856;51.460;7.158;2024-01-07T10:54:42;100973.00;;;4.60
13570;BMP180;6856;51.460;7.158;2024-01-07T10:57:27;100985.00;;;4.60
13570;BMP180;6856;51.460;7.158;2024-01-07T11:00:07;100981.00;;;4.60
13570;BMP180;6856;51.460;7.158;2024-01-07T11:03:00;100970.00;;;4.60
13570;BMP180;6856;51.460;7.158;2024-01-07T11:05:44;100985.00;;;4.60
13570;BMP180;6856;51.460;7.158;2024-01-07T11:08:28;100978.00;;;4.60
13570;BMP180;6856;51.460;7.158;2024-01-07T11:11:10;100986.00;;;4.60
13570;BMP180;6856;51.460;7.158;2024-01-07T11:13:51;100988.00;;;4.60
13570;BMP180;6856;51.460;7.158;2024-01-07T11:16:43;100986.00;;;4.50
13570;BMP180;6856;51.460;7.158;2024-01-07T11:19:20;100985.00;;;4.50
13570;BMP180;6856;51.460;7.158;2024-01-07T11:22:22;100986.00;;;4.50
13570;BMP180;6856;51.460;7.158;2024-01-07T11:25:28;100995.00;;;4.50
13570;BMP180;6856;51.460;7.158;2024-01-07T11:28:04;100996.00;;;4.40
13570;BMP180;6856;51.460;7.158;2024-01-07T11:30:40;101005.00;;;4.40
13570;BMP180;6856;51.460;7.158;2024-01-07T11:33:15;101001.00;;;4.40
13570;BMP180;6856;51.460;7.158;2024-01-07T11:35:57;101002.00;;;4.40
13570;BMP180;6856;51.460;7.158;2024-01-07T11:38:31;100995.00;;;4.40
13570;BMP180;6856;51.460;7.158;2024-01-07T11:41:06;100999.00;;;4.40
13570;BMP180;6856;51.460;7.158;2024-01-07T11:43:55;100994.00;;;4.40
13570;BMP180;6856;51.460;7.158;2024-01-07T11:46:41;100993.00;;;4.40
13570;BMP180;6856;51.460;7.158;2024-01-07T11:49:15;101006.00;;;4.40
13570;BMP180;6856;51.460;7.158;2024-01-07T11:51:51;101005.00;;;4.40
13570;BMP180;6856;51.460;7.158;2024-01-07T11:54:25;101004.00;;;4.30
13570;BMP180;6856;51.460;7.158;2024-01-07T11:57:03;101008.00;;;4.30
13570;BMP180;6856;51.460;7.158;2024-01-07T11:59:48;101008.00;;;4.30
13570;BMP180;6856;51.460;7.158;2024-01-07T12:02:25;101011.00;;;4.30
13570;BMP180;6856;51.460;7.158;2024-01-07T12:05:03;101026.00;;;4.30
13570;BMP180;6856;51.460;7.158;2024-01-07T12:07:39;101020.00;;;4.30
13570;BMP180;6856;51.460;7.158;2024-01-07T12:10:14;101022.00;;;4.20
13570;BMP180;6856;51.460;7.158;2024-01-07T12:12:51;101010.00;;;4.20
13570;BMP180;6856;51.460;7.158;2024-01-07T12:15:27;101026.00;;;4.20
13570;BMP180;6856;51.460;7.158;2024-01-07T12:18:05;101017.00;;;4.20
13570;BMP180;6856;51.460;7.158;2024-01-07T12:20:39;101026.00;;;4.20
13570;BMP180;6856;51.460;7.158;2024-01-07T12:23:13;101030.00;;;4.20
13570;BMP180;6856;51.460;7.158;2024-01-07T12:25:48;101029.00;;;4.20
13570;BMP180;6856;51.460;7.158;2024-01-07T12:28:22;101026.00;;;4.20
13570;BMP180;6856;51.460;7.158;2024-01-07T12:31:00;101035.00;;;4.10
13570;BMP180;6856;51.460;7.158;2024-01-07T12:33:38;101038.00;;;4.10
13570;BMP180;6856;51.460;7.158;2024-01-07T12:36:21;101005.00;;;4.10
13570;BMP180;6856;51.460;7.158;2024-01-07T12:38:55;101044.00;;;4.10
13570;BMP180;6856;51.460;7.158;2024-01-07T12:41:30;101051.00;;;4.10
13570;BMP180;6856;51.460;7.158;2024-01-07T12:44:05;101053.00;;;4.10
13570;BMP180;6856;51.460;7.158;2024-01-07T12:46:41;101059.00;;;4.10
13570;BMP180;6856;51.460;7.158;2024-01-07T12:49:19;101044.00;;;4.10
13570;BMP180;6856;51.460;7.158;2024-01-07T12:51:56;101067.00;;;4.10
13570;BMP180;6856;51.460;7.158;2024-01-07T12:54:32;101069.00;;;4.10
13570;BMP180;6856;51.460;7.158;2024-01-07T12:57:09;101062.00;;;4.10
13570;BMP180;6856;51.460;7.158;2024-01-07T12:59:44;101071.00;;;4.00
13570;BMP180;6856;51.460;7.158;2024-01-07T13:02:18;101068.00;;;4.00
13570;BMP180;6856;51.460;7.158;2024-01-07T13:04:54;101069.00;;;4.00
13570;BMP180;6856;51.460;7.158;2024-01-07T13:07:29;101078.00;;;4.00
13570;BMP180;6856;51.460;7.158;2024-01-07T13:10:03;101078.00;;;4.00
13570;BMP180;6856;51.460;7.158;2024-01-07T13:12:41;101088.00;;;4.00
13570;BMP180;6856;51.460;7.158;2024-01-07T13:15:21;101079.00;;;3.90
13570;BMP180;6856;51.460;7.158;2024-01-07T13:17:56;101077.00;;;3.90
13570;BMP180;6856;51.460;7.158;2024-01-07T13:20:32;101062.00;;;3.80
13570;BMP180;6856;51.460;7.158;2024-01-07T13:23:07;101084.00;;;3.80
13570;BMP180;6856;51.460;7.158;2024-01-07T13:25:44;101088.00;;;3.80
13570;BMP180;6856;51.460;7.158;2024-01-07T13:28:18;101104.00;;;3.80
13570;BMP180;6856;51.460;7.158;2024-01-07T13:30:56;101110.00;;;3.80
13570;BMP180;6856;51.460;7.158;2024-01-07T13:33:31;101095.00;;;3.80
13570;BMP180;6856;51.460;7.158;2024-01-07T13:36:07;101108.00;;;3.80
13570;BMP180;6856;51.460;7.158;2024-01-07T13:38:42;101087.00;;;3.80
13570;BMP180;6856;51.460;7.158;2024-01-07T13:41:17;101096.00;;;3.70
13570;BMP180;6856;51.460;7.158;2024-01-07T13:43:52;101111.00;;;3.80
13570;BMP180;6856;51.460;7.158;2024-01-07T13:46:28;101121.00;;;3.80
13570;BMP180;6856;51.460;7.158;2024-01-07T13:49:02;101107.00;;;3.80
13570;BMP180;6856;51.460;7.158;2024-01-07T13:51:39;101102.00;;;3.80
13570;BMP180;6856;51.460;7.158;2024-01-07T13:54:13;101122.00;;;3.80
13570;BMP180;6856;51.460;7.158;2024-01-07T13:56:48;101120.00;;;3.90
13570;BMP180;6856;51.460;7.158;2024-01-07T13:59:23;101120.00;;;3.80
13570;BMP180;6856;51.460;7.158;2024-01-07T14:01:58;101126.00;;;3.80
13570;BMP180;6856;51.460;7.158;2024-01-07T14:04:33;101126.00;;;3.80
13570;BMP180;6856;51.460;7.158;2024-01-07T14:07:08;101115.00;;;3.80
13570;BMP180;6856;51.460;7.158;2024-01-07T14:09:43;101122.00;;;3.80
13570;BMP180;6856;51.460;7.158;2024-01-07T14:12:19;101132.00;;;3.80
13570;BMP180;6856;51.460;7.158;2024-01-07T14:14:55;101135.00;;;3.80
13570;BMP180;6856;51.460;7.158;2024-01-07T14:17:29;101136.00;;;3.80
13570;BMP180;6856;51.460;7.158;2024-01-07T14:20:05;101131.00;;;3.80
13570;BMP180;6856;51.460;7.158;2024-01-07T14:22:42;101114.00;;;3.80
13570;BMP180;6856;51.460;7.158;2024-01-07T14:25:16;101143.00;;;3.80
13570;BMP180;6856;51.460;7.158;2024-01-07T14:27:50;101142.00;;;3.70
13570;BMP180;6856;51.460;7.158;2024-01-07T14:30:24;101145.00;;;3.80
13570;BMP180;6856;51.460;7.158;2024-01-07T14:32:58;101147.00;;;3.80
13570;BMP180;6856;51.460;7.158;2024-01-07T14:35:32;101159.00;;;3.80
13570;BMP180;6856;51.460;7.158;2024-01-07T14:38:10;101161.00;;;3.80
13570;BMP180;6856;51.460;7.158;2024-01-07T14:40:43;101164.00;;;3.80
13570;BMP180;6856;51.460;7.158;2024-01-07T14:43:18;101162.00;;;3.80
13570;BMP180;6856;51.460;7.158;2024-01-07T14:45:53;101160.00;;;3.80
13570;BMP180;6856;51.460;7.158;2024-01-07T14:48:30;101172.00;;;3.80
13570;BMP180;6856;51.460;7.158;2024-01-07T14:51:04;101170.00;;;3.80
13570;BMP180;6856;51.460;7.158;2024-01-07T14:53:41;101159.00;;;3.80
13570;BMP180;6856;51.460;7.158;2024-01-07T14:56:15;101185.00;;;3.80
13570;BMP180;6856;51.460;7.158;2024-01-07T14:58:49;101186.00;;;3.70
13570;BMP180;6856;51.460;7.158;2024-01-07T15:01:28;101176.00;;;3.70
13570;BMP180;6856;51.460;7.158;2024-01-07T15:04:05;101174.00;;;3.70
13570;BMP180;6856;51.460;7.158;2024-01-07T15:06:42;101184.00;;;3.70
13570;BMP180;6856;51.460;7.158;2024-01-07T15:09:20;101197.00;;;3.70